Time,TemperatureF,DewpointF,PressureIn,WindDirection,WindDirectionDegrees,WindSpeedMPH,WindSpeedGustMPH,Humidity,HourlyPrecipIn,Conditions,Clouds,dailyrainin,SoftwareType,DateUTC
2013-01-06 00:30:00,14.8,9.7,30.21,NW,306,0.0,2.0,80,0.00,CLR,,0.00,WeatherDisplay:10.37,2013-01-06 05:30:00,
2013-01-06 01:00:00,14.8,10.3,30.20,NW,306,0.0,1.0,82,0.00,CLR,,0.00,WeatherDisplay:10.37,2013-01-06 06:00:00,
2013-01-06 01:30:00,15.4,11.2,30.22,NW,306,0.0,2.0,83,0.00,CLR,,0.00,WeatherDisplay:10.37,2013-01-06 06:30:00,
2013-01-06 02:00:00,17.0,12.2,30.23,NW,306,0.0,3.0,81,0.00,CLR,,0.00,WeatherDisplay:10.37,2013-01-06 07:00:00,
2013-01-06 02:30:00,17.5,12.1,30.20,NW,306,0.0,1.0,79,0.00,CLR,,0.00,WeatherDisplay:10.37,2013-01-06 07:30:00,
2013-01-06 03:00:00,17.8,12.4,30.20,NW,306,0.0,1.0,79,0.00,CLR,,0.00,WeatherDisplay:10.37,2013-01-06 08:00:00,
2013-01-06 03:30:00,18.3,12.9,30.16,NW,306,0.0,1.0,79,0.00,SCT,,0.00,WeatherDisplay:10.37,2013-01-06 08:30:00,
2013-01-06 04:00:00,18.8,13.1,30.15,NW,306,1.0,2.0,78,0.00,SCT,,0.00,WeatherDisplay:10.37,2013-01-06 09:00:00,
2013-01-06 04:30:00,19.1,13.1,30.14,NW,306,0.0,2.0,77,0.00,OVC,,0.00,WeatherDisplay:10.37,2013-01-06 09:30:00,
2013-01-06 05:00:00,19.1,13.1,30.12,NW,305,0.0,2.0,77,0.00,OVC,,0.00,WeatherDisplay:10.37,2013-01-06 10:00:00,
2013-01-06 05:30:00,19.2,13.2,30.11,NW,306,0.0,1.0,77,0.00,OVC,,0.00,WeatherDisplay:10.37,2013-01-06 10:30:00,
2013-01-06 06:00:00,19.6,13.6,30.10,NW,306,0.0,0.0,77,0.00,OVC,,0.00,WeatherDisplay:10.37,2013-01-06 11:00:00,
2013-01-06 06:30:00,19.8,14.4,30.10,NW,306,0.0,0.0,79,0.00,OVC,,0.00,WeatherDisplay:10.37,2013-01-06 11:30:00,
2013-01-06 07:00:00,20.2,15.0,30.08,NW,306,0.0,1.0,80,0.00,OVC,,0.00,WeatherDisplay:10.37,2013-01-06 12:00:00,
2013-01-06 07:30:00,20.4,15.8,30.06,NW,306,0.0,0.0,82,0.00,-SN,,0.00,WeatherDisplay:10.37,2013-01-06 12:30:00,
2013-01-06 08:00:00,21.0,16.6,30.06,NW,306,0.0,1.0,83,0.00,-SN,,0.00,WeatherDisplay:10.37,2013-01-06 13:00:00,
2013-01-06 08:30:00,21.9,17.5,30.06,NW,306,0.0,1.0,83,0.00,OVC,,0.00,WeatherDisplay:10.37,2013-01-06 13:30:00,
2013-01-06 09:00:00,26.1,19.9,30.05,South,182,1.0,3.0,77,0.00,BKN,,0.00,WeatherDisplay:10.37,2013-01-06 14:00:00,
2013-01-06 09:30:00,29.5,20.9,30.04,South,182,0.0,5.0,70,0.00,SCT,,0.00,WeatherDisplay:10.37,2013-01-06 14:30:00,
2013-01-06 10:00:00,31.6,21.9,30.03,South,185,2.0,6.0,67,0.00,SCT,,0.00,WeatherDisplay:10.37,2013-01-06 15:00:00,
2013-01-06 10:30:00,33.1,23.0,30.01,SW,217,1.0,7.0,66,0.00,CLR,,0.00,WeatherDisplay:10.37,2013-01-06 15:30:00,
2013-01-06 11:00:00,34.8,23.9,30.00,SSE,156,1.0,6.0,64,0.00,CLR,,0.01,WeatherDisplay:10.37,2013-01-06 16:00:00,
2013-01-06 11:30:00,36.5,24.3,29.98,SW,216,3.0,6.0,61,0.00,FEW,,0.03,WeatherDisplay:10.37,2013-01-06 16:30:00,
2013-01-06 12:00:00,36.7,24.5,29.97,WSW,253,5.0,12.0,61,0.00,FEW,,0.05,WeatherDisplay:10.37,2013-01-06 17:00:00,
2013-01-06 12:30:00,38.3,25.2,29.95,West,277,3.0,8.0,59,0.00,OVC,,0.07,WeatherDisplay:10.37,2013-01-06 17:30:00,
2013-01-06 13:00:00,39.3,25.4,29.94,West,271,6.0,13.0,57,0.01,RA,,0.10,WeatherDisplay:10.37,2013-01-06 18:00:00,
2013-01-06 13:30:00,39.9,25.9,29.93,West,280,3.0,22.0,57,0.00,OVC,,0.12,WeatherDisplay:10.37,2013-01-06 18:30:00,
2013-01-06 14:00:00,41.7,26.7,29.94,West,260,3.0,12.0,55,0.00,OVC,,0.15,WeatherDisplay:10.37,2013-01-06 19:00:00,
2013-01-06 14:30:00,40.2,26.2,29.93,WSW,242,3.0,12.0,57,0.00,BKN,,0.18,WeatherDisplay:10.37,2013-01-06 19:30:00,
2013-01-06 15:30:00,38.6,25.5,29.93,WSW,254,2.0,10.0,59,0.00,CLR,,0.21,WeatherDisplay:10.37,2013-01-06 20:30:00,
2013-01-06 16:00:00,36.9,25.1,29.93,SW,235,1.0,10.0,62,0.00,CLR,,0.21,WeatherDisplay:10.37,2013-01-06 21:00:00,
2013-01-06 16:30:00,34.9,24.3,29.94,SW,228,0.0,7.0,65,0.00,BKN,,0.21,WeatherDisplay:10.37,2013-01-06 21:30:00,
2013-01-06 17:00:00,31.9,23.9,29.95,SW,227,1.0,2.0,72,0.00,BKN,,0.21,WeatherDisplay:10.37,2013-01-06 22:00:00,
2013-01-06 17:30:00,31.0,24.6,29.95,SSW,212,1.0,3.0,77,0.00,BKN,,0.21,WeatherDisplay:10.37,2013-01-06 22:30:00,
2013-01-06 18:00:00,31.3,24.6,29.95,SSW,210,0.0,2.0,76,0.00,BKN,,0.21,WeatherDisplay:10.37,2013-01-06 23:00:00,
2013-01-06 18:30:00,31.0,24.6,29.95,SSW,210,0.0,2.0,77,0.00,OVC,,0.21,WeatherDisplay:10.37,2013-01-06 23:30:00,
2013-01-06 19:00:00,30.7,24.7,29.96,SSW,210,0.0,2.0,78,0.00,OVC,,0.21,WeatherDisplay:10.37,2013-01-07 00:00:00,
2013-01-06 19:30:00,30.7,25.0,29.96,SSW,210,0.0,2.0,79,0.00,OVC,,0.21,WeatherDisplay:10.37,2013-01-07 00:30:00,
2013-01-06 20:00:00,30.9,25.2,29.97,SSW,210,0.0,2.0,79,0.00,OVC,,0.21,WeatherDisplay:10.37,2013-01-07 01:00:00,
2013-01-06 20:30:00,30.6,25.2,29.96,SSW,210,0.0,2.0,80,0.00,OVC,,0.21,WeatherDisplay:10.37,2013-01-07 01:30:00,
2013-01-06 21:00:00,29.8,24.4,29.96,SSW,210,0.0,2.0,80,0.00,OVC,,0.21,WeatherDisplay:10.37,2013-01-07 02:00:00,
2013-01-06 21:30:00,29.1,24.3,29.95,SSW,210,0.0,1.0,82,0.00,OVC,,0.21,WeatherDisplay:10.37,2013-01-07 02:30:00,
2013-01-06 22:00:00,27.9,23.7,29.95,SSW,210,0.0,1.0,84,0.00,OVC,,0.21,WeatherDisplay:10.37,2013-01-07 03:00:00,
2013-01-06 22:30:00,27.6,23.7,29.94,SSW,210,0.0,2.0,85,0.00,BKN,,0.21,WeatherDisplay:10.37,2013-01-07 03:30:00,
2013-01-06 23:00:00,26.7,22.8,29.95,SSW,210,0.0,2.0,85,0.00,BKN,,0.21,WeatherDisplay:10.37,2013-01-07 04:00:00,
2013-01-06 23:30:00,25.7,22.1,29.95,SSW,210,0.0,3.0,86,0.00,FEW,,0.21,WeatherDisplay:10.37,2013-01-07 04:30:00,